logo
Search for airport 
image banner adimage banner adimage banner ad
image banner ad

CYMX - Montreal Intl (Mirabel)

Located in , Canada

ICAO - CYMX, IATA - YMX

Data provided by Airmate  

General information

Coordinates: N45°40'47" W74°2'19"
Elevation is 271 feet MSL.
Magnetic variation is -15° East
View others Airports in Quebec

Operational data

Special qualification required
Current time UTC:
Current local time:
Weather
TAF: TAF CYMX 170540Z 1706/1806 03005KT P6SM SKC BECMG 1713/1715 07008KT FM180500 07010G20KT P6SM BKN180 RMK NXT FCST BY 171200Z
View NOTAMs / SUP AIP / TFR affecting this airport [VIEW]
Communications frequencies: [VIEW]

Runways:

RWY identifierQFULength (ft)Width (ft)SurfaceLDA (ft)
0645°12000200CONC12000
24225°12000200CONC12000
1198°12000200CONC12000
29278°12000200CONC12000

Airport contact information

Address: Canada

Other aviation service providers

Flight schools

Academy Of Aeronautics

Academy Of Aeronautics

Non aviation service providers

Aviation shops

Cavok Canada

Cavok Canada

Satellite view of CYMX